createdAt,value
2022-07-30T00:02:17.348Z,88891.88
2022-07-30T00:05:01.936Z,88896.75
2022-07-30T00:07:46.717Z,88885.25
2022-07-30T00:10:31.398Z,88878.75
2022-07-30T00:13:16.266Z,88888.06
2022-07-30T00:16:00.970Z,88895.25
2022-07-30T00:18:45.828Z,88885.88
2022-07-30T00:21:36.137Z,88890.75
2022-07-30T00:24:21.744Z,88882.97
2022-07-30T00:27:06.602Z,88883.81
2022-07-30T00:29:51.367Z,88877.00
2022-07-30T00:32:36.154Z,88879.22
2022-07-30T00:35:20.817Z,88881.03
2022-07-30T00:38:05.442Z,88883.34
2022-07-30T00:40:50.257Z,88879.22
2022-07-30T00:43:34.969Z,88872.41
2022-07-30T00:46:19.697Z,88879.50
2022-07-30T00:49:04.357Z,88881.19
2022-07-30T00:51:49.716Z,88884.22
2022-07-30T00:54:34.480Z,88882.72
2022-07-30T00:57:19.247Z,88881.47
2022-07-30T01:00:04.112Z,88888.97
2022-07-30T01:02:49.131Z,88885.81
2022-07-30T01:05:33.896Z,88882.47
2022-07-30T01:08:18.784Z,88887.88
2022-07-30T01:11:03.539Z,88884.16
2022-07-30T01:13:48.185Z,88876.53
2022-07-30T01:16:33.082Z,88881.09
2022-07-30T01:19:18.264Z,88877.25
2022-07-30T01:22:02.976Z,88876.28
2022-07-30T01:24:47.649Z,88876.13
2022-07-30T01:27:32.450Z,88866.53
2022-07-30T01:30:17.111Z,88873.06
2022-07-30T01:33:02.450Z,88866.66
2022-07-30T01:35:47.283Z,88866.78
2022-07-30T01:38:35.158Z,88860.81
2022-07-30T01:41:20.380Z,88863.16
2022-07-30T01:44:05.061Z,88858.81
2022-07-30T01:46:49.932Z,88860.88
2022-07-30T01:49:34.695Z,88863.50
2022-07-30T01:52:19.425Z,88856.28
2022-07-30T01:55:04.243Z,88855.59
2022-07-30T01:57:59.646Z,88861.28
2022-07-30T02:00:44.342Z,88856.41
2022-07-30T02:03:29.075Z,88864.72
2022-07-30T02:06:13.730Z,88865.50
2022-07-30T02:08:58.499Z,88869.47
2022-07-30T02:11:43.260Z,88869.69
2022-07-30T02:14:28.064Z,88866.03
2022-07-30T02:17:19.146Z,88864.47
2022-07-30T02:20:09.571Z,88860.63
2022-07-30T02:22:54.956Z,88852.66
2022-07-30T02:25:39.532Z,88846.53
2022-07-30T02:28:24.425Z,88844.47
2022-07-30T02:31:16.941Z,88836.84
2022-07-30T02:34:02.527Z,88828.78
2022-07-30T02:36:47.420Z,88833.97
2022-07-30T02:39:32.112Z,88831.19
2022-07-30T02:42:16.898Z,88828.69
2022-07-30T02:45:06.419Z,88826.28
2022-07-30T02:47:51.032Z,88826.00
2022-07-30T02:50:35.817Z,88822.97
2022-07-30T02:53:20.526Z,88825.06
2022-07-30T02:56:05.239Z,88820.34
2022-07-30T02:58:49.938Z,88822.97
2022-07-30T03:01:35.367Z,88818.03
2022-07-30T03:04:20.625Z,88831.72
2022-07-30T03:07:08.397Z,88829.09
2022-07-30T03:09:53.699Z,88829.78
2022-07-30T03:12:38.474Z,88837.00
2022-07-30T03:15:23.445Z,88844.72
2022-07-30T03:18:08.445Z,88842.81
2022-07-30T03:20:53.153Z,88854.81
2022-07-30T03:23:38.056Z,88856.72
2022-07-30T03:26:22.767Z,88853.88
2022-07-30T03:29:07.608Z,88859.03
2022-07-30T03:31:54.962Z,88855.16
2022-07-30T03:34:40.217Z,88848.22
2022-07-30T03:37:26.113Z,88856.78
2022-07-30T03:40:10.911Z,88856.50
2022-07-30T03:42:55.715Z,88861.97
2022-07-30T03:45:40.532Z,88856.22
2022-07-30T03:48:25.362Z,88863.44
2022-07-30T03:51:10.275Z,88864.03
2022-07-30T03:53:54.962Z,88868.94
2022-07-30T03:56:39.803Z,88872.72
2022-07-30T03:59:24.593Z,88870.41
2022-07-30T04:02:09.409Z,88874.13
2022-07-30T04:04:54.646Z,88879.69
2022-07-30T04:07:41.382Z,88881.41
2022-07-30T04:10:30.379Z,88883.81
2022-07-30T04:13:15.085Z,88891.63
2022-07-30T04:16:38.115Z,88892.66
2022-07-30T04:19:04.861Z,88889.34
2022-07-30T04:21:49.740Z,88893.53
2022-07-30T04:24:34.502Z,88899.97
2022-07-30T04:27:19.385Z,88895.38
2022-07-30T04:30:04.176Z,88895.38
2022-07-30T04:32:48.812Z,88902.91
2022-07-30T04:35:50.952Z,88899.50
2022-07-30T04:38:37.225Z,88898.31
2022-07-30T04:41:21.919Z,88910.81
2022-07-30T04:44:06.663Z,88909.34
2022-07-30T04:46:51.353Z,88908.19
2022-07-30T04:49:36.455Z,88911.81
2022-07-30T04:52:21.120Z,88916.94
2022-07-30T04:55:06.090Z,88927.63
2022-07-30T04:57:50.787Z,88913.66
2022-07-30T05:00:40.506Z,88918.72
2022-07-30T05:03:26.036Z,88925.56
2022-07-30T05:06:10.711Z,88935.16
2022-07-30T05:08:55.997Z,88933.16
2022-07-30T05:11:40.791Z,88928.09
2022-07-30T05:14:25.541Z,88928.56
2022-07-30T05:17:10.170Z,88933.38
2022-07-30T05:19:55.064Z,88938.28
2022-07-30T05:22:39.799Z,88937.56
2022-07-30T05:25:28.002Z,88938.91
2022-07-30T05:28:12.765Z,88943.47
2022-07-30T05:30:57.794Z,88937.38
2022-07-30T05:33:42.934Z,88949.25
2022-07-30T05:36:28.273Z,88956.28
2022-07-30T05:39:12.895Z,88955.34
2022-07-30T05:41:57.726Z,88951.03
2022-07-30T05:44:42.447Z,88958.47
2022-07-30T05:47:27.320Z,88954.50
2022-07-30T05:50:12.137Z,88944.66
2022-07-30T05:52:56.903Z,88951.66
2022-07-30T05:55:41.930Z,88942.75
2022-07-30T05:58:26.613Z,88951.66
2022-07-30T06:01:12.111Z,88948.81
2022-07-30T06:03:57.243Z,88948.09
2022-07-30T06:06:42.058Z,88949.22
2022-07-30T06:09:36.169Z,88955.81
2022-07-30T06:12:21.413Z,88958.41
2022-07-30T06:15:06.136Z,88948.72
2022-07-30T06:17:51.138Z,88957.38
2022-07-30T06:20:44.424Z,88943.69
2022-07-30T06:23:29.171Z,88950.16
2022-07-30T06:26:13.917Z,88953.03
2022-07-30T06:28:58.473Z,88948.34
2022-07-30T06:31:43.293Z,88946.59
2022-07-30T06:34:27.996Z,88954.69
2022-07-30T06:37:12.846Z,88959.88
2022-07-30T06:39:58.729Z,88958.00
2022-07-30T06:42:43.840Z,88957.25
2022-07-30T06:45:28.554Z,88961.97
2022-07-30T06:48:13.323Z,88961.31
2022-07-30T06:50:58.017Z,88968.13
2022-07-30T06:53:43.035Z,88968.97
2022-07-30T06:56:28.199Z,88968.22
2022-07-30T06:59:12.958Z,88972.78
2022-07-30T07:01:57.721Z,88971.81
2022-07-30T07:04:43.019Z,88971.78
2022-07-30T07:07:41.217Z,88975.00
2022-07-30T07:10:27.022Z,88964.78
2022-07-30T07:13:11.773Z,88977.81
2022-07-30T07:15:56.704Z,88968.38
2022-07-30T07:18:41.436Z,88979.47
2022-07-30T07:21:26.248Z,88975.41
2022-07-30T07:24:10.989Z,88985.34
2022-07-30T07:26:55.768Z,88989.72
2022-07-30T07:29:40.600Z,88979.63
2022-07-30T07:32:45.445Z,88970.78
2022-07-30T07:35:30.239Z,88986.22
2022-07-30T07:38:14.816Z,88985.81
2022-07-30T07:40:59.552Z,88987.44
2022-07-30T07:43:44.154Z,88977.28
2022-07-30T07:46:33.601Z,88984.53
2022-07-30T07:49:19.429Z,88972.44
2022-07-30T07:52:04.602Z,88979.22
2022-07-30T07:54:49.335Z,88974.59
2022-07-30T07:57:35.247Z,88980.41
2022-07-30T08:00:21.014Z,88975.03
2022-07-30T08:03:05.825Z,88973.00
2022-07-30T08:05:53.950Z,88980.09
2022-07-30T08:08:50.861Z,88976.47
2022-07-30T08:11:35.658Z,88979.34
2022-07-30T08:14:20.377Z,88971.22
2022-07-30T08:17:05.650Z,88970.84
2022-07-30T08:19:51.032Z,88979.94
2022-07-30T08:22:35.880Z,88974.88
2022-07-30T08:25:22.154Z,88969.41
2022-07-30T08:28:36.291Z,88965.84
2022-07-30T08:31:14.540Z,88964.34
2022-07-30T08:33:59.195Z,88956.78
2022-07-30T08:36:43.915Z,88965.91
2022-07-30T08:39:28.711Z,88964.25
2022-07-30T08:42:13.543Z,88961.22
2022-07-30T08:44:58.300Z,88964.44
2022-07-30T08:47:43.067Z,88967.88
2022-07-30T08:50:27.938Z,88961.16
2022-07-30T08:53:12.629Z,88964.28
2022-07-30T08:55:58.778Z,88963.34
2022-07-30T08:58:43.952Z,88960.75
2022-07-30T09:01:28.636Z,88960.38
2022-07-30T09:04:13.447Z,88965.81
2022-07-30T09:06:58.260Z,88967.41
2022-07-30T09:09:42.902Z,88971.94
2022-07-30T09:12:27.698Z,88968.38
2022-07-30T09:15:12.487Z,88976.09
2022-07-30T09:17:57.228Z,88969.28
2022-07-30T09:20:42.050Z,88969.97
2022-07-30T09:23:26.720Z,88973.47
2022-07-30T09:26:11.607Z,88966.88
2022-07-30T09:28:56.298Z,88970.75
2022-07-30T09:31:43.543Z,88973.41
2022-07-30T09:34:28.824Z,88964.53
2022-07-30T09:37:13.616Z,88966.91
2022-07-30T09:39:59.142Z,88967.50
2022-07-30T09:42:44.535Z,88965.00
2022-07-30T09:45:34.943Z,88962.44
2022-07-30T09:48:19.904Z,88967.09
2022-07-30T09:51:04.630Z,88961.47
2022-07-30T09:53:49.276Z,88967.47
2022-07-30T09:56:34.051Z,88960.44
2022-07-30T09:59:19.770Z,88958.16
2022-07-30T10:02:09.945Z,88960.31
2022-07-30T10:04:55.380Z,88962.72
2022-07-30T10:07:42.918Z,88963.41
2022-07-30T10:10:28.927Z,88961.47
2022-07-30T10:13:20.530Z,88962.25
2022-07-30T10:16:05.603Z,88961.03
2022-07-30T10:18:51.471Z,88953.16
2022-07-30T10:21:36.840Z,88965.84
2022-07-30T10:24:27.643Z,88950.94
2022-07-30T10:27:12.930Z,88961.91
2022-07-30T10:29:57.981Z,88949.19
2022-07-30T10:32:42.714Z,88952.41
2022-07-30T10:35:34.819Z,88948.75
2022-07-30T10:38:23.408Z,88934.91
2022-07-30T10:41:08.146Z,88936.63
2022-07-30T10:43:52.807Z,88940.88
2022-07-30T10:46:37.848Z,88941.28
2022-07-30T10:49:22.558Z,88937.13
2022-07-30T10:52:07.255Z,88934.28
2022-07-30T10:54:51.934Z,88936.53
2022-07-30T10:57:41.544Z,88934.16
2022-07-30T11:00:29.713Z,88935.44
2022-07-30T11:03:16.001Z,88941.72
2022-07-30T11:06:00.944Z,88937.88
2022-07-30T11:08:48.052Z,88938.31
2022-07-30T11:12:01.181Z,88935.97
2022-07-30T11:14:38.271Z,88931.66
2022-07-30T11:17:23.103Z,88932.25
2022-07-30T11:20:11.832Z,88931.25
2022-07-30T11:22:56.994Z,88940.47
2022-07-30T11:25:51.275Z,88936.22
2022-07-30T11:28:39.101Z,88935.34
2022-07-30T11:31:24.132Z,88938.81
2022-07-30T11:34:25.658Z,88931.34
2022-07-30T11:37:19.202Z,88938.00
2022-07-30T11:40:07.557Z,88933.13
2022-07-30T11:42:52.373Z,88931.34
2022-07-30T11:45:36.986Z,88920.41
2022-07-30T11:48:21.801Z,88935.28
2022-07-30T11:51:06.468Z,88929.41
2022-07-30T11:53:51.232Z,88937.09
2022-07-30T11:56:36.437Z,88936.41
2022-07-30T11:59:21.120Z,88930.06
2022-07-30T12:02:06.145Z,88926.69
2022-07-30T12:04:51.118Z,88933.56
2022-07-30T12:07:35.902Z,88941.56
2022-07-30T12:10:26.781Z,88939.94
2022-07-30T12:13:12.326Z,88936.84
2022-07-30T12:15:57.214Z,88939.69
2022-07-30T12:18:41.944Z,88933.22
2022-07-30T12:21:26.726Z,88937.06
2022-07-30T12:24:11.372Z,88930.50
2022-07-30T12:26:56.109Z,88931.34
2022-07-30T12:29:40.899Z,88940.06
2022-07-30T12:32:25.753Z,88940.91
2022-07-30T12:35:10.520Z,88934.56
2022-07-30T12:37:55.357Z,88930.53
2022-07-30T12:40:40.218Z,88928.97
2022-07-30T12:43:24.918Z,88929.84
2022-07-30T12:46:13.178Z,88937.41
2022-07-30T12:48:59.889Z,88929.06
2022-07-30T12:51:58.406Z,88925.94
2022-07-30T12:54:45.315Z,88934.38
2022-07-30T12:57:30.097Z,88946.44
2022-07-30T13:00:14.797Z,88943.97
2022-07-30T13:02:59.500Z,88953.25
2022-07-30T13:05:44.213Z,88941.50
2022-07-30T13:08:29.042Z,88946.91
2022-07-30T13:11:13.790Z,88945.88
2022-07-30T13:13:58.621Z,88958.56
2022-07-30T13:16:43.325Z,88956.50
2022-07-30T13:19:28.135Z,88956.69
2022-07-30T13:22:12.871Z,88953.78
2022-07-30T13:24:57.742Z,88949.94
2022-07-30T13:27:42.403Z,88948.50
2022-07-30T13:30:27.169Z,88946.00
2022-07-30T13:33:11.852Z,88927.19
2022-07-30T13:35:56.600Z,88927.38
2022-07-30T13:38:41.430Z,88928.84
2022-07-30T13:41:26.201Z,88931.38
2022-07-30T13:44:10.947Z,88924.00
2022-07-30T13:46:58.780Z,88925.47
2022-07-30T13:49:46.468Z,88928.88
2022-07-30T13:52:37.395Z,88929.84
2022-07-30T13:55:22.384Z,88935.78
2022-07-30T13:58:07.200Z,88923.13
2022-07-30T14:00:51.900Z,88919.94
2022-07-30T14:03:36.699Z,88925.19
2022-07-30T14:06:21.623Z,88913.47
2022-07-30T14:09:07.533Z,88912.00
2022-07-30T14:11:52.349Z,88915.09
2022-07-30T14:14:37.037Z,88914.31
2022-07-30T14:17:21.658Z,88911.81
2022-07-30T14:20:06.454Z,88917.00
2022-07-30T14:22:51.264Z,88912.31
2022-07-30T14:25:35.957Z,88905.34
2022-07-30T14:28:20.759Z,88915.88
2022-07-30T14:31:05.438Z,88915.53
2022-07-30T14:33:50.262Z,88906.97
2022-07-30T14:36:35.024Z,88907.16
2022-07-30T14:39:19.729Z,88906.03
2022-07-30T14:42:04.434Z,88918.00
2022-07-30T14:44:49.226Z,88920.97
2022-07-30T14:47:34.078Z,88928.03
2022-07-30T14:50:18.923Z,88924.25
2022-07-30T14:53:04.429Z,88916.63
2022-07-30T14:55:49.176Z,88921.47
2022-07-30T14:58:34.031Z,88923.66
2022-07-30T15:01:19.707Z,88923.88
2022-07-30T15:04:05.028Z,88921.91
2022-07-30T15:06:49.681Z,88928.38
2022-07-30T15:09:34.496Z,88922.59
2022-07-30T15:12:23.569Z,88932.00
2022-07-30T15:15:12.369Z,88924.94
2022-07-30T15:17:59.386Z,88919.56
2022-07-30T15:20:44.278Z,88918.97
2022-07-30T15:23:29.267Z,88905.34
2022-07-30T15:26:14.451Z,88913.00
2022-07-30T15:28:59.215Z,88905.69
2022-07-30T15:31:43.896Z,88913.63
2022-07-30T15:34:28.676Z,88903.38
2022-07-30T15:37:13.425Z,88911.72
2022-07-30T15:39:58.379Z,88915.16
2022-07-30T15:42:43.000Z,88910.34
2022-07-30T15:45:27.826Z,88917.13
2022-07-30T15:48:12.489Z,88914.03
2022-07-30T15:51:09.875Z,88917.16
2022-07-30T15:53:54.600Z,88919.41
2022-07-30T15:56:39.546Z,88921.91
2022-07-30T15:59:24.207Z,88917.13
2022-07-30T16:02:08.951Z,88917.75
2022-07-30T16:04:53.714Z,88923.72
2022-07-30T16:07:38.617Z,88913.00
2022-07-30T16:10:23.472Z,88916.56
2022-07-30T16:13:08.264Z,88916.13
2022-07-30T16:15:52.983Z,88910.19
2022-07-30T16:18:37.757Z,88916.91
2022-07-30T16:21:22.528Z,88915.25
2022-07-30T16:24:07.145Z,88916.25
2022-07-30T16:26:51.939Z,88919.00
2022-07-30T16:29:36.636Z,88916.28
2022-07-30T16:32:21.497Z,88908.84
2022-07-30T16:35:08.415Z,88915.66
2022-07-30T16:37:56.442Z,88906.44
2022-07-30T16:40:41.290Z,88908.25
2022-07-30T16:43:25.985Z,88911.97
2022-07-30T16:46:10.831Z,88911.47
2022-07-30T16:48:55.620Z,88909.28
2022-07-30T16:51:40.405Z,88899.78
2022-07-30T16:54:25.345Z,88904.97
2022-07-30T16:57:10.533Z,88906.28
2022-07-30T16:59:56.074Z,88906.88
2022-07-30T17:02:41.110Z,88908.25
2022-07-30T17:05:25.835Z,88905.59
2022-07-30T17:08:10.506Z,88905.78
2022-07-30T17:10:55.331Z,88901.47
2022-07-30T17:13:42.420Z,88913.94
2022-07-30T17:16:27.502Z,88906.13
2022-07-30T17:19:12.527Z,88899.88
2022-07-30T17:21:57.273Z,88916.50
2022-07-30T17:24:42.153Z,88913.53
2022-07-30T17:27:26.793Z,88913.13
2022-07-30T17:30:11.482Z,88916.47
2022-07-30T17:32:56.245Z,88913.31
2022-07-30T17:35:40.962Z,88916.88
2022-07-30T17:38:25.812Z,88922.44
2022-07-30T17:41:13.387Z,88917.31
2022-07-30T17:43:59.022Z,88917.41
2022-07-30T17:46:43.825Z,88926.19
2022-07-30T17:49:28.640Z,88919.88
2022-07-30T17:52:13.331Z,88927.88
2022-07-30T17:54:58.197Z,88924.31
2022-07-30T17:57:43.018Z,88923.13
2022-07-30T18:00:27.764Z,88923.41
2022-07-30T18:03:12.658Z,88915.91
2022-07-30T18:05:57.339Z,88918.00
2022-07-30T18:08:42.152Z,88918.50
2022-07-30T18:11:26.899Z,88921.66
2022-07-30T18:14:11.631Z,88922.44
2022-07-30T18:16:56.478Z,88922.44
2022-07-30T18:19:41.317Z,88924.09
2022-07-30T18:22:29.862Z,88928.75
2022-07-30T18:25:19.302Z,88925.28
2022-07-30T18:28:04.403Z,88931.59
2022-07-30T18:30:49.350Z,88932.47
2022-07-30T18:33:34.169Z,88932.94
2022-07-30T18:36:18.837Z,88937.69
2022-07-30T18:39:03.364Z,88941.34
2022-07-30T18:41:48.094Z,88945.06
2022-07-30T18:44:32.788Z,88940.34
2022-07-30T18:47:17.500Z,88947.75
2022-07-30T18:50:02.326Z,88947.75
2022-07-30T18:52:47.567Z,88946.69
2022-07-30T18:55:32.388Z,88953.19
2022-07-30T18:58:17.098Z,88953.06
2022-07-30T19:01:01.909Z,88954.56
2022-07-30T19:03:46.522Z,88957.63
2022-07-30T19:06:31.253Z,88955.13
2022-07-30T19:09:17.956Z,88954.34
2022-07-30T19:12:03.491Z,88958.50
2022-07-30T19:14:48.454Z,88961.53
2022-07-30T19:17:45.421Z,88971.63
2022-07-30T19:20:32.133Z,88964.44
2022-07-30T19:23:16.934Z,88963.16
2022-07-30T19:26:01.726Z,88965.19
2022-07-30T19:28:46.373Z,88967.44
2022-07-30T19:31:31.145Z,88969.53
2022-07-30T19:34:15.848Z,88972.09
2022-07-30T19:37:00.663Z,88963.41
2022-07-30T19:40:05.614Z,88968.25
2022-07-30T19:42:51.591Z,88981.50
2022-07-30T19:45:47.510Z,88987.13
2022-07-30T19:48:32.822Z,88983.78
2022-07-30T19:51:21.076Z,88986.53
2022-07-30T19:54:09.931Z,88996.78
2022-07-30T19:56:54.766Z,88998.50
2022-07-30T19:59:45.749Z,89002.84
2022-07-30T20:02:44.543Z,89003.66
2022-07-30T20:05:30.493Z,89012.31
2022-07-30T20:08:15.586Z,89005.47
2022-07-30T20:11:00.374Z,89008.19
2022-07-30T20:13:46.272Z,89004.41
2022-07-30T20:16:31.490Z,89009.63
2022-07-30T20:19:16.699Z,89013.63
2022-07-30T20:22:01.569Z,89016.97
2022-07-30T20:24:46.235Z,89021.06
2022-07-30T20:27:35.942Z,89027.19
2022-07-30T20:30:25.310Z,89026.69
2022-07-30T20:33:10.144Z,89026.28
2022-07-30T20:35:54.819Z,89024.91
2022-07-30T20:38:39.886Z,89024.75
2022-07-30T20:41:25.054Z,89030.25
2022-07-30T20:44:14.666Z,89028.03
2022-07-30T20:47:08.578Z,89025.25
2022-07-30T20:49:53.507Z,89035.16
2022-07-30T20:52:39.388Z,89032.09
2022-07-30T20:55:24.531Z,89037.13
2022-07-30T20:58:16.519Z,89033.25
2022-07-30T21:01:04.771Z,89038.72
2022-07-30T21:03:50.033Z,89034.78
2022-07-30T21:06:34.939Z,89042.47
2022-07-30T21:09:20.133Z,89043.63
2022-07-30T21:12:05.844Z,89040.59
2022-07-30T21:14:51.651Z,89041.72
2022-07-30T21:17:36.239Z,89040.59
2022-07-30T21:20:27.332Z,89037.53
2022-07-30T21:23:13.101Z,89043.25
2022-07-30T21:26:01.307Z,89045.22
2022-07-30T21:28:49.242Z,89041.72
2022-07-30T21:31:35.078Z,89055.41
2022-07-30T21:37:44.940Z,89053.59
2022-07-30T21:40:29.820Z,89050.69
2022-07-30T21:43:14.574Z,89045.53
2022-07-30T21:46:08.091Z,89047.22
2022-07-30T21:48:58.530Z,89050.69
2022-07-30T21:52:00.164Z,89051.66
2022-07-30T21:54:48.145Z,89054.72
2022-07-30T21:57:34.611Z,89058.91
2022-07-30T22:00:20.870Z,89060.97
2022-07-30T22:06:12.493Z,89063.06
2022-07-30T22:08:57.912Z,89059.44
2022-07-30T22:11:45.361Z,89060.00
2022-07-30T22:14:31.655Z,89056.81
2022-07-30T22:17:23.942Z,89071.69
2022-07-30T22:20:21.252Z,89064.16
2022-07-30T22:23:06.701Z,89068.22
2022-07-30T22:25:51.998Z,89068.75
2022-07-30T22:28:45.107Z,89062.91
2022-07-30T22:31:30.951Z,89064.13
2022-07-30T22:34:24.407Z,89066.50
2022-07-30T22:37:12.795Z,89063.16
2022-07-30T22:39:58.513Z,89069.72
2022-07-30T22:42:49.686Z,89058.56
2022-07-30T22:45:47.409Z,89060.66
2022-07-30T22:48:34.767Z,89061.91
2022-07-30T22:51:20.452Z,89059.53
2022-07-30T22:54:12.828Z,89054.38
2022-07-30T22:56:58.063Z,89059.66
2022-07-30T22:59:49.416Z,89060.75
2022-07-30T23:02:43.721Z,89063.09
2022-07-30T23:05:28.471Z,89064.22
2022-07-30T23:08:14.237Z,89065.47
2022-07-30T23:10:59.155Z,89069.34
2022-07-30T23:12:27.492Z,89044.13
2022-07-30T23:12:28.084Z,89063.22
2022-07-30T23:13:44.448Z,89066.56
2022-07-30T23:16:29.217Z,89072.00
2022-07-30T23:19:21.852Z,89078.09
2022-07-30T23:22:07.150Z,89077.41
2022-07-30T23:24:51.833Z,89079.44
2022-07-30T23:27:36.499Z,89083.63
2022-07-30T23:30:21.322Z,89069.72
2022-07-30T23:33:06.087Z,89071.66
2022-07-30T23:35:51.350Z,89071.38
2022-07-30T23:38:36.287Z,89068.72
2022-07-30T23:41:30.402Z,89072.88
2022-07-30T23:44:15.852Z,89065.47
2022-07-30T23:47:01.035Z,89067.16
2022-07-30T23:49:45.913Z,89067.00
2022-07-30T23:52:30.609Z,89067.41
2022-07-30T23:55:15.508Z,89066.00
2022-07-30T23:58:00.234Z,89065.72
